Time;durP1;ratioP1;P1;durP2;ratioP2;P2;SDS_P1;SDS_P2;PMS_P1;PMS_P2;Temp;Humidity;BMP_temperature;BMP_pressure;BME280_temperature;BME280_humidity;BME280_pressure;Samples;Min_cycle;Max_cycle;Signal;HPM_P1;HPM_P2
2023/11/15 00:00:57;;;;;;;8.20;2.53;;;11.30;99.90;;;;;;4968161;28;20042;-67
2023/11/15 00:03:22;;;;;;;10.50;2.40;;;11.30;99.90;;;;;;4982219;28;20072;-67
2023/11/15 00:05:48;;;;;;;10.00;2.60;;;11.30;99.90;;;;;;4975617;28;20510;-67
2023/11/15 00:08:14;;;;;;;6.45;2.47;;;11.30;99.90;;;;;;4977378;28;20595;-67
2023/11/15 00:10:40;;;;;;;4.88;2.30;;;11.30;99.90;;;;;;4976136;28;20078;-67
2023/11/15 00:13:09;;;;;;;4.10;2.00;;;11.30;99.90;;;;;;4983383;28;20054;-67
2023/11/15 00:15:35;;;;;;;4.88;2.55;;;11.30;99.90;;;;;;4983078;28;20384;-67
2023/11/15 00:18:04;;;;;;;6.20;2.17;;;11.30;99.90;;;;;;4967369;28;20038;-67
2023/11/15 00:20:33;;;;;;;6.32;2.17;;;11.30;99.90;;;;;;4977048;28;20019;-67
2023/11/15 00:22:59;;;;;;;8.48;2.22;;;11.30;99.90;;;;;;4974312;28;20378;-67
2023/11/15 00:25:27;;;;;;;7.60;2.90;;;11.30;99.90;;;;;;4982496;28;20042;-67
2023/11/15 00:27:55;;;;;;;5.22;1.85;;;11.30;99.90;;;;;;4977184;28;20031;-67
2023/11/15 00:30:23;;;;;;;6.63;2.60;;;11.30;99.90;;;;;;4976300;28;20586;-67
2023/11/15 00:32:48;;;;;;;;;;;11.30;99.90;;;;;;4976997;28;20479;-67
2023/11/15 00:35:17;;;;;;;8.30;2.00;;;11.30;99.90;;;;;;4974714;28;19909;-67
2023/11/15 00:37:45;;;;;;;7.60;2.58;;;11.30;99.90;;;;;;4983098;28;20042;-67
2023/11/15 00:40:14;;;;;;;6.68;2.38;;;11.30;99.90;;;;;;4983219;28;20058;-67
2023/11/15 00:42:41;;;;;;;13.68;2.92;;;11.30;99.90;;;;;;4982218;28;20049;-67
2023/11/15 00:45:08;;;;;;;8.95;2.65;;;11.30;99.90;;;;;;4982724;28;20074;-67
2023/11/15 00:47:37;;;;;;;9.88;2.55;;;11.30;99.90;;;;;;4983865;23;20015;-67
2023/11/15 00:50:04;;;;;;;12.40;2.92;;;11.30;99.90;;;;;;4968811;28;20030;-67
2023/11/15 00:52:33;;;;;;;8.18;2.28;;;11.30;99.90;;;;;;4959188;28;20039;-67
2023/11/15 00:54:58;;;;;;;8.50;2.40;;;11.30;99.90;;;;;;4970434;28;20042;-67
2023/11/15 00:57:26;;;;;;;7.93;2.50;;;11.30;99.90;;;;;;4967874;28;20039;-67
2023/11/15 00:59:54;;;;;;;7.88;2.45;;;11.40;99.90;;;;;;4966330;28;20035;-67
2023/11/15 01:02:21;;;;;;;6.65;2.00;;;11.40;99.90;;;;;;4965849;28;20390;-67
2023/11/15 01:04:50;;;;;;;14.35;2.65;;;11.30;99.90;;;;;;4968607;28;20031;-67
2023/11/15 01:07:18;;;;;;;9.65;2.00;;;11.30;99.90;;;;;;4969554;28;20030;-67
2023/11/15 01:09:48;;;;;;;7.35;2.17;;;11.20;99.90;;;;;;4971422;28;20153;-67
2023/11/15 01:12:16;;;;;;;6.60;2.03;;;11.20;99.90;;;;;;4969701;28;20053;-67
2023/11/15 01:14:42;;;;;;;15.70;2.30;;;11.20;99.90;;;;;;4968520;28;20508;-67
2023/11/15 01:17:10;;;;;;;9.65;2.42;;;11.20;99.90;;;;;;4972881;28;20484;-67
2023/11/15 01:19:36;;;;;;;7.85;2.35;;;11.20;99.90;;;;;;4966435;28;20129;-67
2023/11/15 01:22:04;;;;;;;14.77;2.30;;;11.20;99.90;;;;;;4976899;28;20162;-67
2023/11/15 01:24:29;;;;;;;;;;;11.30;99.90;;;;;;4966190;28;20412;-67
2023/11/15 01:26:55;;;;;;;5.75;2.05;;;11.20;99.90;;;;;;4973756;28;19933;-67
2023/11/15 01:29:21;;;;;;;17.05;2.45;;;11.10;99.90;;;;;;4973807;28;20389;-67
2023/11/15 01:31:47;;;;;;;11.82;2.92;;;11.20;99.90;;;;;;4971211;28;20498;-67
2023/11/15 01:34:16;;;;;;;9.68;2.20;;;11.20;99.90;;;;;;4967738;28;20046;-67
2023/11/15 01:36:44;;;;;;;11.90;2.33;;;11.10;99.90;;;;;;4967473;28;20027;-67
2023/11/15 01:39:16;;;;;;;7.35;2.00;;;11.10;99.90;;;;;;4967859;28;20110;-67
2023/11/15 01:41:47;;;;;;;7.70;2.40;;;11.10;99.90;;;;;;4966978;28;20051;-67
2023/11/15 01:44:18;;;;;;;9.32;2.10;;;11.20;99.90;;;;;;4972619;28;20035;-67
2023/11/15 01:46:51;;;;;;;4.68;1.73;;;11.20;99.90;;;;;;4970601;28;20038;-67
2023/11/15 01:49:18;;;;;;;5.38;2.10;;;11.20;99.90;;;;;;4960702;28;20093;-67
2023/11/15 01:51:48;;;;;;;6.45;1.98;;;11.20;99.90;;;;;;4958053;28;20110;-67
2023/11/15 01:54:16;;;;;;;5.40;1.90;;;11.10;99.90;;;;;;4967706;28;20221;-67
2023/11/15 01:56:42;;;;;;;6.93;2.05;;;11.10;99.90;;;;;;4971532;28;20023;-67
2023/11/15 01:59:08;;;;;;;4.65;1.80;;;11.20;99.90;;;;;;4967411;28;20041;-67
2023/11/15 02:01:37;;;;;;;12.32;2.50;;;11.20;99.90;;;;;;4967205;28;20027;-67
2023/11/15 02:04:04;;;;;;;10.45;2.42;;;11.20;99.90;;;;;;4953229;28;20704;-67
2023/11/15 02:06:30;;;;;;;5.90;2.25;;;11.00;99.90;;;;;;4968849;28;20038;-67
2023/11/15 02:08:58;;;;;;;7.57;1.80;;;11.00;99.90;;;;;;4967418;28;20565;-67
2023/11/15 02:11:24;;;;;;;6.55;2.00;;;11.00;99.90;;;;;;4966908;28;20042;-67
2023/11/15 02:13:52;;;;;;;12.10;1.83;;;11.00;99.90;;;;;;4969353;28;20097;-67
2023/11/15 02:16:23;;;;;;;15.48;2.33;;;11.00;99.90;;;;;;4969271;28;20035;-67
2023/11/15 02:18:49;;;;;;;7.03;2.05;;;10.90;99.90;;;;;;4968320;28;20577;-67
2023/11/15 02:21:15;;;;;;;10.63;2.05;;;10.90;99.90;;;;;;4966222;28;20097;-67
2023/11/15 02:23:44;;;;;;;7.45;1.80;;;11.00;99.90;;;;;;4969223;28;20116;-67
2023/11/15 02:26:10;;;;;;;5.35;2.83;;;11.00;99.90;;;;;;4967988;28;20468;-67
2023/11/15 02:28:38;;;;;;;5.30;1.95;;;10.90;99.90;;;;;;4965147;28;20026;-67
2023/11/15 02:31:05;;;;;;;20.08;2.55;;;11.00;99.90;;;;;;4973378;28;20034;-67
2023/11/15 02:33:31;;;;;;;7.38;1.42;;;11.00;99.90;;;;;;4970105;28;20691;-67
2023/11/15 02:35:56;;;;;;;7.25;1.52;;;11.00;99.90;;;;;;4965786;28;20045;-67
2023/11/15 02:38:24;;;;;;;7.55;1.75;;;11.00;99.90;;;;;;4968038;28;20121;-67
2023/11/15 02:40:50;;;;;;;;;;;10.90;99.90;;;;;;4967900;28;20047;-67
2023/11/15 02:43:15;;;;;;;9.10;2.47;;;11.00;99.90;;;;;;4967213;28;19950;-67
2023/11/15 02:45:42;;;;;;;7.65;2.55;;;11.00;99.90;;;;;;4965510;28;20027;-67
2023/11/15 02:48:10;;;;;;;4.22;1.92;;;11.00;99.90;;;;;;4964425;28;20042;-67
2023/11/15 02:50:35;;;;;;;;;;;10.90;99.90;;;;;;4970048;28;20088;-67
2023/11/15 02:53:03;;;;;;;10.63;2.13;;;11.00;99.90;;;;;;4964878;28;20282;-67
2023/11/15 02:55:31;;;;;;;;;;;11.00;99.90;;;;;;4961759;28;20058;-67
2023/11/15 02:57:57;;;;;;;5.43;1.45;;;11.00;99.90;;;;;;4963472;28;20012;-67
2023/11/15 03:00:25;;;;;;;5.03;1.50;;;11.00;99.90;;;;;;4966944;28;20027;-67
2023/11/15 03:02:51;;;;;;;;;;;11.10;99.90;;;;;;4968072;28;20501;-67
2023/11/15 03:05:17;;;;;;;1.20;0.60;;;11.10;99.90;;;;;;4966071;28;20069;-67
2023/11/15 03:07:44;;;;;;;2.85;1.15;;;11.00;99.90;;;;;;4953298;28;20034;-67
2023/11/15 03:10:12;;;;;;;2.22;0.73;;;11.00;99.90;;;;;;4965204;28;20038;-67
2023/11/15 03:12:42;;;;;;;;;;;11.00;99.90;;;;;;4967574;28;20149;-67
2023/11/15 03:15:08;;;;;;;1.52;0.63;;;11.00;99.90;;;;;;4965661;28;19964;-67
2023/11/15 03:17:34;;;;;;;8.85;0.75;;;10.90;99.90;;;;;;4970504;28;20034;-67
2023/11/15 03:20:00;;;;;;;1.85;0.70;;;10.80;99.90;;;;;;4964191;28;20027;-67
2023/11/15 03:22:25;;;;;;;2.40;0.65;;;10.80;99.90;;;;;;4962246;28;20031;-67
2023/11/15 03:24:51;;;;;;;2.08;0.85;;;10.70;99.90;;;;;;4965753;28;20033;-67
2023/11/15 03:27:17;;;;;;;1.70;0.40;;;10.70;99.90;;;;;;4966830;28;20096;-67
2023/11/15 03:29:43;;;;;;;1.73;0.70;;;10.70;99.90;;;;;;4967903;28;20035;-67
2023/11/15 03:32:11;;;;;;;3.80;0.88;;;10.70;99.90;;;;;;4962204;28;20035;-67
2023/11/15 03:34:41;;;;;;;1.08;0.68;;;10.70;99.90;;;;;;4968746;28;20019;-67
2023/11/15 03:37:10;;;;;;;2.55;0.90;;;10.70;99.90;;;;;;4963059;28;20377;-67
2023/11/15 03:39:37;;;;;;;0.80;0.57;;;10.70;99.90;;;;;;4967004;28;20023;-67
2023/11/15 03:42:04;;;;;;;2.15;0.80;;;10.70;99.90;;;;;;4970402;28;20029;-67
2023/11/15 03:44:29;;;;;;;2.08;0.80;;;10.60;99.90;;;;;;4963306;28;20608;-67
2023/11/15 03:46:55;;;;;;;1.25;0.55;;;10.70;99.90;;;;;;4968038;28;20031;-67
2023/11/15 03:49:23;;;;;;;2.25;0.70;;;10.60;99.90;;;;;;4964547;28;20389;-67
2023/11/15 03:51:51;;;;;;;;;;;10.70;99.90;;;;;;4965985;28;20409;-67
2023/11/15 03:54:16;;;;;;;2.03;0.70;;;10.50;99.90;;;;;;4963139;28;19941;-67
2023/11/15 03:56:47;;;;;;;3.30;0.70;;;10.50;99.90;;;;;;4952351;28;20026;-67
2023/11/15 03:59:12;;;;;;;0.73;0.73;;;10.50;99.90;;;;;;4949792;28;20038;-67
2023/11/15 04:01:39;;;;;;;5.03;0.98;;;10.50;99.90;;;;;;4959166;28;20038;-67
2023/11/15 04:04:05;;;;;;;5.40;0.80;;;10.50;99.90;;;;;;4965846;28;20038;-67
2023/11/15 04:06:32;;;;;;;2.28;0.80;;;10.40;99.90;;;;;;4960957;28;20031;-67
2023/11/15 04:09:01;;;;;;;3.03;0.63;;;10.60;99.90;;;;;;4965189;28;20053;-67
2023/11/15 04:11:35;;;;;;;3.92;0.70;;;10.50;99.90;;;;;;4961645;28;20034;-67
2023/11/15 04:14:05;;;;;;;2.35;0.60;;;10.50;99.90;;;;;;4968352;28;20030;-67
2023/11/15 04:16:31;;;;;;;1.25;0.63;;;10.50;99.90;;;;;;4962513;28;20082;-67
2023/11/15 04:19:02;;;;;;;1.60;0.70;;;10.60;99.90;;;;;;4967926;28;20046;-67
2023/11/15 04:21:32;;;;;;;2.50;0.70;;;10.60;99.90;;;;;;4966309;28;20098;-67
2023/11/15 04:24:00;;;;;;;3.40;0.73;;;10.60;99.90;;;;;;4967495;28;20116;-67
2023/11/15 04:26:26;;;;;;;1.52;0.80;;;10.70;99.90;;;;;;4965599;28;20548;-67
2023/11/15 04:28:51;;;;;;;2.58;0.80;;;10.50;99.90;;;;;;4967110;28;20038;-67
2023/11/15 04:31:20;;;;;;;0.98;0.45;;;10.50;99.90;;;;;;4964503;28;20138;-67
2023/11/15 04:33:46;;;;;;;2.22;0.60;;;10.50;99.90;;;;;;4971090;28;20023;-67
2023/11/15 04:36:14;;;;;;;4.60;0.85;;;10.50;99.90;;;;;;4966808;28;20030;-67
2023/11/15 04:38:40;;;;;;;3.50;0.50;;;10.50;99.90;;;;;;4969509;28;20114;-67
2023/11/15 04:41:06;;;;;;;4.93;0.60;;;10.40;99.90;;;;;;4964108;28;20109;-67
2023/11/15 04:43:34;;;;;;;1.13;0.60;;;10.40;99.90;;;;;;4965441;28;20114;-67
2023/11/15 04:46:03;;;;;;;1.02;0.60;;;10.40;99.90;;;;;;4969583;28;20027;-67
2023/11/15 04:48:29;;;;;;;2.05;0.80;;;10.40;99.90;;;;;;4969697;28;20113;-67
2023/11/15 04:50:57;;;;;;;3.05;0.82;;;10.40;99.90;;;;;;4970618;28;20485;-66
2023/11/15 04:53:27;;;;;;;2.05;1.20;;;10.30;99.90;;;;;;4965194;28;20031;-67
2023/11/15 04:55:52;;;;;;;1.25;1.17;;;10.20;99.90;;;;;;4975554;28;20033;-67
2023/11/15 04:58:18;;;;;;;1.02;0.60;;;10.20;99.90;;;;;;4965150;28;20027;-67
2023/11/15 05:00:43;;;;;;;0.73;0.60;;;10.30;99.90;;;;;;4966079;28;20660;-67
2023/11/15 05:03:10;;;;;;;4.70;0.90;;;10.30;99.90;;;;;;4964411;28;20027;-67
2023/11/15 05:05:36;;;;;;;3.47;0.90;;;10.40;99.90;;;;;;4968762;28;20036;-67
2023/11/15 05:08:02;;;;;;;2.90;0.80;;;10.30;99.90;;;;;;4969311;28;20077;-67
2023/11/15 05:10:29;;;;;;;3.22;0.90;;;10.40;99.90;;;;;;4969952;28;20027;-67
2023/11/15 05:13:00;;;;;;;3.53;1.42;;;10.30;99.90;;;;;;4967574;28;20031;-67
2023/11/15 05:15:25;;;;;;;3.63;1.30;;;10.20;99.90;;;;;;4961896;28;20031;-67
2023/11/15 05:17:51;;;;;;;3.08;1.30;;;10.20;99.90;;;;;;4968263;28;20027;-67
2023/11/15 05:20:20;;;;;;;2.33;1.70;;;10.20;99.90;;;;;;4967440;28;20098;-67
2023/11/15 05:22:45;;;;;;;1.88;1.17;;;10.30;99.90;;;;;;4965248;28;20019;-67
2023/11/15 05:25:16;;;;;;;2.30;1.63;;;10.40;99.90;;;;;;4967096;28;20790;-67
2023/11/15 05:27:45;;;;;;;4.72;1.77;;;10.30;99.90;;;;;;4965589;28;20023;-67
2023/11/15 05:30:13;;;;;;;3.72;1.27;;;10.50;99.90;;;;;;4969221;28;20062;-67
2023/11/15 05:32:39;;;;;;;2.92;1.60;;;10.50;99.90;;;;;;4968697;28;20037;-67
2023/11/15 05:35:05;;;;;;;2.92;1.70;;;10.50;99.90;;;;;;4967971;28;20043;-66
2023/11/15 05:37:31;;;;;;;5.03;2.13;;;10.50;99.90;;;;;;4991323;23;20666;-90
2023/11/15 05:39:56;;;;;;;2.60;1.77;;;10.50;99.90;;;;;;4979803;28;20067;-89
2023/11/15 05:42:22;;;;;;;3.42;1.50;;;10.60;99.90;;;;;;4979675;28;20030;-90
2023/11/15 05:44:48;;;;;;;5.30;2.10;;;10.70;99.90;;;;;;4973426;28;20022;-89
2023/11/15 05:47:15;;;;;;;5.47;1.95;;;10.70;99.90;;;;;;4968205;28;20085;-90
2023/11/15 05:49:41;;;;;;;6.22;2.03;;;10.50;99.90;;;;;;4978237;28;20553;-89
2023/11/15 05:52:06;;;;;;;5.05;2.42;;;10.60;99.90;;;;;;4979207;28;20035;-89
2023/11/15 05:54:32;;;;;;;4.90;2.38;;;10.70;99.90;;;;;;4971907;28;20034;-90
2023/11/15 05:57:00;;;;;;;5.72;2.40;;;10.80;99.90;;;;;;4968908;28;20396;-89
2023/11/15 05:59:29;;;;;;;4.32;2.58;;;10.80;99.90;;;;;;4980584;28;20501;-89
2023/11/15 06:01:54;;;;;;;;;;;10.90;99.90;;;;;;4963196;28;20663;-90
2023/11/15 06:04:24;;;;;;;8.10;2.50;;;11.00;99.90;;;;;;4971499;28;19910;-89
2023/11/15 06:06:49;;;;;;;4.22;2.47;;;10.90;99.90;;;;;;4984332;28;20153;-88
2023/11/15 06:09:17;;;;;;;7.22;3.17;;;10.90;99.90;;;;;;4960497;28;20110;-90
2023/11/15 06:11:43;;;;;;;6.20;3.53;;;10.90;99.90;;;;;;4977024;28;20027;-90
2023/11/15 06:14:09;;;;;;;7.50;3.80;;;10.80;99.90;;;;;;4984034;28;20041;-89
2023/11/15 06:16:38;;;;;;;9.93;3.88;;;10.70;99.90;;;;;;4970780;28;20033;-89
2023/11/15 06:19:07;;;;;;;9.35;4.38;;;10.70;99.90;;;;;;4965749;28;20058;-89
2023/11/15 06:21:36;;;;;;;8.35;4.60;;;10.70;99.90;;;;;;4968643;28;20022;-89
2023/11/15 06:24:04;;;;;;;7.05;4.22;;;10.80;99.90;;;;;;4983625;28;20034;-89
2023/11/15 06:26:38;;;;;;;9.38;5.13;;;10.70;99.90;;;;;;4986095;28;20617;-89
2023/11/15 06:29:05;;;;;;;10.68;5.03;;;10.70;99.90;;;;;;4980256;28;20602;-90
2023/11/15 06:31:37;;;;;;;6.88;4.45;;;10.60;99.90;;;;;;4981258;28;20089;-90
2023/11/15 06:34:04;;;;;;;11.35;5.53;;;10.70;99.90;;;;;;4975095;28;20030;-89
2023/11/15 06:36:36;;;;;;;11.85;4.32;;;10.60;99.90;;;;;;4965417;28;20027;-90
2023/11/15 06:39:21;;;;;;;8.63;4.40;;;10.60;99.90;;;;;;4979589;28;20064;-90
2023/11/15 06:41:47;;;;;;;10.50;4.13;;;10.60;99.90;;;;;;4981347;28;20101;-89
2023/11/15 06:44:15;;;;;;;10.10;4.38;;;10.60;99.90;;;;;;4961263;28;20110;-90
2023/11/15 06:46:41;;;;;;;7.32;4.18;;;10.60;99.90;;;;;;4966367;28;20074;-91
2023/11/15 06:49:10;;;;;;;10.50;3.78;;;10.60;99.90;;;;;;4978488;28;20034;-86
2023/11/15 06:51:49;;;;;;;6.30;3.40;;;10.60;99.90;;;;;;4981131;28;20030;-89
2023/11/15 06:54:15;;;;;;;6.60;3.40;;;10.60;99.90;;;;;;4966980;28;20044;-91
2023/11/15 06:56:43;;;;;;;6.50;3.00;;;10.60;99.90;;;;;;4978699;28;20529;-92
2023/11/15 06:59:12;;;;;;;5.32;2.55;;;10.50;99.90;;;;;;4973721;28;20434;-90
2023/11/15 07:01:37;;;;;;;4.30;2.25;;;10.50;99.90;;;;;;4960584;28;20027;-91
2023/11/15 07:04:06;;;;;;;15.50;2.78;;;10.50;99.90;;;;;;4962969;28;20406;-92
2023/11/15 07:06:32;;;;;;;6.63;2.63;;;10.40;99.90;;;;;;4948235;28;20053;-90
2023/11/15 07:08:59;;;;;;;6.93;2.35;;;10.40;99.90;;;;;;4957598;28;20497;-89
2023/11/15 07:11:26;;;;;;;6.15;2.42;;;10.40;99.90;;;;;;4969284;28;20105;-92
2023/11/15 07:13:55;;;;;;;4.68;2.47;;;10.40;99.90;;;;;;4968838;28;20060;-90
2023/11/15 07:16:20;;;;;;;6.15;3.15;;;10.50;99.90;;;;;;4969049;28;20038;-90
2023/11/15 07:18:48;;;;;;;5.45;3.08;;;10.50;99.90;;;;;;4984110;28;20030;-91
2023/11/15 07:21:19;;;;;;;8.70;3.50;;;10.40;99.90;;;;;;4966703;28;20589;-91
2023/11/15 07:23:48;;;;;;;7.53;3.40;;;10.40;99.90;;;;;;4977389;28;20096;-91
2023/11/15 07:26:16;;;;;;;7.78;2.92;;;10.40;99.90;;;;;;4978432;28;20096;-90
2023/11/15 07:28:42;;;;;;;;;;;10.50;99.90;;;;;;4956722;28;20034;-91
2023/11/15 07:31:11;;;;;;;9.30;3.80;;;10.50;99.90;;;;;;4980069;28;20380;-91
2023/11/15 07:33:37;;;;;;;10.02;4.47;;;10.50;99.90;;;;;;4963595;28;20058;-91
2023/11/15 07:36:06;;;;;;;7.38;3.92;;;10.40;99.90;;;;;;4967805;28;20077;-91
2023/11/15 07:38:31;;;;;;;9.80;3.63;;;10.40;99.90;;;;;;4965866;28;20034;-91
2023/11/15 07:40:57;;;;;;;6.53;3.38;;;10.40;99.90;;;;;;4962670;28;20042;-91
2023/11/15 07:43:22;;;;;;;8.05;3.38;;;10.40;99.90;;;;;;4962806;28;20025;-90
2023/11/15 07:45:52;;;;;;;9.27;3.55;;;10.40;99.90;;;;;;4965639;28;20104;-91
2023/11/15 07:48:19;;;;;;;7.43;3.40;;;10.40;99.90;;;;;;4953247;28;20031;-91
2023/11/15 07:50:46;;;;;;;7.10;3.90;;;10.50;99.90;;;;;;4974310;28;20045;-90
2023/11/15 07:53:15;;;;;;;7.07;3.38;;;10.60;99.90;;;;;;4959543;28;20030;-90
2023/11/15 07:55:42;;;;;;;5.78;3.15;;;10.60;99.90;;;;;;4963492;28;20033;-90
2023/11/15 07:58:11;;;;;;;12.32;4.30;;;10.60;99.90;;;;;;4962257;28;20034;-90
2023/11/15 08:00:40;;;;;;;8.90;4.03;;;10.70;99.90;;;;;;4966654;28;20026;-90
2023/11/15 08:03:07;;;;;;;7.82;3.45;;;10.70;99.90;;;;;;4962118;28;20539;-90
2023/11/15 08:05:36;;;;;;;5.97;3.78;;;10.70;99.90;;;;;;4977870;28;20026;-89
2023/11/15 08:08:01;;;;;;;10.85;4.05;;;10.70;99.90;;;;;;4963249;28;20034;-90
2023/11/15 08:10:28;;;;;;;11.68;5.25;;;10.70;99.90;;;;;;4965644;28;20804;-89
2023/11/15 08:12:55;;;;;;;11.80;5.93;;;10.80;99.90;;;;;;4964049;28;20134;-90
2023/11/15 08:15:20;;;;;;;11.25;6.05;;;10.80;99.90;;;;;;4981292;28;20085;-91
2023/11/15 08:17:46;;;;;;;13.32;6.13;;;10.80;99.90;;;;;;4965348;28;20030;-91
2023/11/15 08:20:17;;;;;;;10.05;5.53;;;10.80;99.90;;;;;;4961067;28;20105;-91
2023/11/15 08:22:43;;;;;;;10.23;5.45;;;10.80;99.90;;;;;;4965929;28;20033;-90
2023/11/15 08:25:09;;;;;;;8.82;4.75;;;10.80;99.90;;;;;;4966776;28;20030;-91
2023/11/15 08:27:43;;;;;;;6.55;4.75;;;10.80;99.90;;;;;;4965906;28;20396;-91
2023/11/15 08:30:16;;;;;;;9.18;5.85;;;10.90;99.90;;;;;;4960401;28;20054;-90
2023/11/15 08:32:43;;;;;;;8.93;5.03;;;11.00;99.90;;;;;;4959337;28;20396;-91
2023/11/15 08:35:14;;;;;;;8.57;4.78;;;11.00;99.90;;;;;;4974287;28;20060;-90
2023/11/15 08:37:40;;;;;;;11.02;4.22;;;11.10;99.90;;;;;;4976257;28;20058;-91
2023/11/15 08:40:10;;;;;;;13.05;4.82;;;11.10;99.90;;;;;;4954424;28;20061;-89
2023/11/15 08:42:39;;;;;;;9.00;4.47;;;11.10;99.90;;;;;;4962288;28;20081;-89
2023/11/15 08:45:09;;;;;;;13.27;5.00;;;11.10;99.90;;;;;;4974940;28;20512;-90
2023/11/15 08:47:36;;;;;;;11.65;4.53;;;11.10;99.90;;;;;;4965090;28;20539;-90
2023/11/15 08:50:05;;;;;;;14.98;6.38;;;11.10;99.90;;;;;;4960939;28;20676;-90
2023/11/15 08:52:32;;;;;;;11.75;6.45;;;11.10;99.90;;;;;;4960932;28;20033;-90
2023/11/15 08:54:58;;;;;;;10.00;5.63;;;11.20;99.90;;;;;;4971388;28;20733;-89
2023/11/15 08:57:24;;;;;;;11.48;5.63;;;11.10;99.90;;;;;;4961698;28;20138;-90
2023/11/15 08:59:50;;;;;;;17.35;6.63;;;11.10;99.90;;;;;;4960691;28;20023;-91
2023/11/15 09:02:16;;;;;;;13.20;6.43;;;11.20;99.90;;;;;;4968853;28;20039;-90
2023/11/15 09:04:45;;;;;;;18.05;8.23;;;11.20;99.90;;;;;;4966521;28;20023;-90
2023/11/15 09:07:12;;;;;;;23.25;7.75;;;11.00;99.90;;;;;;4975152;28;20097;-91
2023/11/15 09:09:41;;;;;;;16.02;8.05;;;11.00;99.90;;;;;;4972870;28;20472;-90
2023/11/15 09:12:08;;;;;;;17.52;8.27;;;11.00;99.90;;;;;;4980584;28;20022;-90
2023/11/15 09:14:39;;;;;;;21.60;7.18;;;11.00;99.90;;;;;;4976514;28;20102;-90
2023/11/15 09:17:12;;;;;;;16.55;8.18;;;11.10;99.90;;;;;;4960547;28;20038;-90
2023/11/15 09:19:40;;;;;;;15.73;8.15;;;11.10;99.90;;;;;;4969556;28;20405;-90
2023/11/15 09:22:08;;;;;;;12.82;6.90;;;11.20;99.90;;;;;;4963076;28;20055;-90
2023/11/15 09:24:35;;;;;;;11.65;7.22;;;11.20;99.90;;;;;;4970135;28;20510;-89
2023/11/15 09:27:03;;;;;;;17.55;7.20;;;11.20;99.90;;;;;;4978050;28;20046;-89
2023/11/15 09:29:34;;;;;;;13.27;7.32;;;11.30;99.90;;;;;;4972043;28;20029;-89
2023/11/15 09:32:04;;;;;;;18.17;7.78;;;11.30;99.90;;;;;;4979976;28;20080;-90
2023/11/15 09:34:32;;;;;;;14.75;7.97;;;11.40;99.90;;;;;;4980404;28;20034;-88
2023/11/15 09:36:58;;;;;;;16.85;7.65;;;11.40;99.90;;;;;;4969186;28;20038;-90
2023/11/15 09:39:29;;;;;;;16.52;7.70;;;11.30;99.90;;;;;;4985022;28;20038;-90
2023/11/15 09:41:55;;;;;;;12.23;6.80;;;11.30;99.90;;;;;;4951420;28;20121;-89
2023/11/15 09:44:23;;;;;;;12.98;6.95;;;11.30;99.90;;;;;;4968518;28;20149;-91
2023/11/15 09:46:57;;;;;;;10.82;5.63;;;11.30;99.90;;;;;;4962548;28;20023;-90
2023/11/15 09:49:27;;;;;;;18.73;6.13;;;11.30;99.90;;;;;;4966837;28;20501;-90
2023/11/15 09:51:54;;;;;;;11.20;5.90;;;11.10;99.90;;;;;;4970338;28;20038;-91
2023/11/15 09:54:23;;;;;;;10.63;5.72;;;11.20;99.90;;;;;;4976639;28;20117;-90
2023/11/15 09:56:51;;;;;;;9.07;5.40;;;11.30;99.90;;;;;;4975094;28;20497;-90
2023/11/15 09:59:18;;;;;;;9.10;4.78;;;11.30;99.90;;;;;;4981545;28;20106;-90
2023/11/15 10:01:45;;;;;;;9.52;4.93;;;11.20;99.90;;;;;;4962946;28;20033;-89
2023/11/15 10:04:25;;;;;;;6.35;4.07;;;11.20;99.90;;;;;;4973963;28;20027;-91
2023/11/15 10:06:51;;;;;;;7.82;4.18;;;11.30;99.90;;;;;;4973489;28;20030;-90
2023/11/15 10:09:34;;;;;;;8.13;4.30;;;11.30;99.90;;;;;;4950355;28;20121;-90
2023/11/15 10:12:02;;;;;;;5.90;3.78;;;11.40;99.90;;;;;;4980674;28;20037;-91
2023/11/15 10:14:29;;;;;;;12.68;3.78;;;11.40;99.90;;;;;;4968405;28;20053;-89
2023/11/15 10:16:55;;;;;;;10.15;4.13;;;11.50;99.90;;;;;;4974477;28;20513;-89
2023/11/15 10:19:23;;;;;;;12.00;3.92;;;11.50;99.90;;;;;;4978315;28;20039;-90
2023/11/15 10:22:07;;;;;;;6.95;3.10;;;11.40;99.90;;;;;;4967507;28;20054;-90
2023/11/15 10:24:38;;;;;;;5.90;2.88;;;11.50;99.90;;;;;;4960813;28;20026;-89
2023/11/15 10:27:14;;;;;;;5.85;3.03;;;11.50;99.90;;;;;;4974723;28;20027;-90
2023/11/15 10:29:45;;;;;;;11.40;4.20;;;11.60;99.90;;;;;;4967085;28;20092;-89
2023/11/15 10:32:14;;;;;;;7.55;4.07;;;11.50;99.90;;;;;;4950862;28;20122;-90
2023/11/15 10:34:51;;;;;;;9.77;3.42;;;11.50;99.90;;;;;;4976043;28;20058;-90
2023/11/15 10:37:18;;;;;;;10.05;3.15;;;11.50;99.90;;;;;;4964901;28;20618;-91
2023/11/15 10:39:47;;;;;;;5.63;2.70;;;11.60;99.90;;;;;;4967831;28;20037;-91
2023/11/15 10:42:18;;;;;;;5.38;3.22;;;11.60;99.90;;;;;;4977783;28;20027;-90
2023/11/15 10:44:47;;;;;;;5.85;2.95;;;11.60;99.90;;;;;;4965742;28;20078;-90
2023/11/15 10:47:23;;;;;;;7.05;3.28;;;11.70;99.90;;;;;;4980947;28;20482;-91
2023/11/15 10:50:04;;;;;;;5.80;3.75;;;11.70;99.90;;;;;;4958747;28;20046;-90
2023/11/15 10:52:34;;;;;;;7.18;3.80;;;11.70;99.90;;;;;;4966328;28;20038;-91
2023/11/15 10:55:01;;;;;;;7.55;3.67;;;11.70;99.90;;;;;;4972911;28;20096;-90
2023/11/15 10:57:29;;;;;;;5.57;3.17;;;11.90;99.90;;;;;;4964592;28;20034;-91
2023/11/15 10:59:56;;;;;;;;;;;11.80;99.90;;;;;;4967952;28;20041;-91
2023/11/15 11:02:25;;;;;;;4.28;2.33;;;11.80;99.90;;;;;;4967729;28;19912;-91
2023/11/15 11:04:54;;;;;;;5.20;2.28;;;11.80;99.90;;;;;;4981659;28;20053;-91
2023/11/15 11:07:40;;;;;;;5.60;2.47;;;11.90;99.90;;;;;;4950491;28;20187;-91
2023/11/15 11:10:12;;;;;;;3.47;2.33;;;11.90;99.90;;;;;;4968546;28;20749;-90
2023/11/15 11:12:38;;;;;;;10.20;2.08;;;11.90;99.90;;;;;;4964840;28;20275;-90
2023/11/15 11:15:37;;;;;;;7.70;2.00;;;11.90;99.90;;;;;;4952233;28;20066;-90
2023/11/15 11:18:13;;;;;;;4.57;1.52;;;11.90;99.90;;;;;;4984661;28;20248;-91
2023/11/15 11:20:41;;;;;;;7.72;1.85;;;11.80;99.90;;;;;;4957127;28;20038;-89
2023/11/15 11:23:19;;;;;;;3.60;1.83;;;11.80;99.90;;;;;;4957891;28;20033;-91
2023/11/15 11:25:48;;;;;;;3.15;1.50;;;11.80;99.90;;;;;;4978983;28;20030;-91
2023/11/15 11:28:15;;;;;;;4.93;1.83;;;11.90;99.90;;;;;;4961827;28;20067;-90
2023/11/15 11:30:42;;;;;;;6.35;2.25;;;11.90;99.90;;;;;;4967307;28;20787;-90
2023/11/15 11:33:18;;;;;;;5.82;2.25;;;11.90;99.90;;;;;;4977238;28;20034;-89
2023/11/15 11:35:45;;;;;;;2.85;1.80;;;11.90;99.90;;;;;;4958884;28;20061;-90
2023/11/15 11:38:43;;;;;;;3.50;1.60;;;12.00;99.90;;;;;;4969743;28;20034;-91
2023/11/15 11:41:12;;;;;;;7.15;2.45;;;12.00;99.90;;;;;;4980394;28;20030;-91
2023/11/15 11:43:38;;;;;;;3.83;2.10;;;12.00;99.90;;;;;;4959638;28;20166;-90
2023/11/15 11:46:18;;;;;;;6.30;2.22;;;12.00;99.90;;;;;;4956540;28;20113;-89
2023/11/15 11:48:43;;;;;;;3.72;2.13;;;12.00;99.90;;;;;;4962237;28;20034;-91
2023/11/15 11:51:09;;;;;;;7.88;2.50;;;12.00;99.90;;;;;;4968113;28;20026;-91
2023/11/15 11:53:39;;;;;;;4.57;1.90;;;11.90;99.90;;;;;;4981824;28;20057;-91
2023/11/15 11:56:10;;;;;;;5.50;2.00;;;12.00;99.90;;;;;;4966500;28;20034;-92
2023/11/15 11:58:36;;;;;;;6.60;2.55;;;11.90;99.90;;;;;;4967538;28;20037;-90
2023/11/15 12:01:04;;;;;;;6.20;2.25;;;11.80;99.90;;;;;;4967010;28;20045;-90
2023/11/15 12:03:35;;;;;;;8.18;2.80;;;11.80;99.90;;;;;;4965267;28;20019;-91
2023/11/15 12:06:12;;;;;;;6.75;2.72;;;11.80;99.90;;;;;;4949247;28;20038;-90
2023/11/15 12:08:42;;;;;;;4.05;2.60;;;11.80;99.90;;;;;;4971608;28;20041;-91
2023/11/15 12:11:10;;;;;;;9.93;3.00;;;11.80;99.90;;;;;;4964800;28;20773;-90
2023/11/15 12:13:49;;;;;;;11.88;4.25;;;11.90;99.90;;;;;;4960943;28;20102;-90
2023/11/15 12:16:19;;;;;;;9.40;3.30;;;11.80;99.90;;;;;;4972703;28;20674;-90
2023/11/15 12:19:08;;;;;;;6.18;2.97;;;11.80;99.90;;;;;;4962786;28;20117;-90
2023/11/15 12:21:37;;;;;;;5.55;2.33;;;11.90;99.90;;;;;;4980306;28;20030;-90
2023/11/15 12:24:05;;;;;;;5.25;2.10;;;11.90;99.90;;;;;;4973865;28;20027;-90
2023/11/15 12:26:46;;;;;;;5.68;2.03;;;11.90;99.90;;;;;;4977713;28;20023;-90
2023/11/15 12:29:24;;;;;;;3.50;1.95;;;11.90;99.90;;;;;;4965339;28;20462;-90
2023/11/15 12:31:52;;;;;;;2.58;1.70;;;11.90;99.90;;;;;;4975783;28;20584;-90
2023/11/15 12:34:18;;;;;;;9.60;2.00;;;11.80;99.90;;;;;;4971718;28;20089;-90
2023/11/15 12:36:45;;;;;;;7.90;1.75;;;11.90;99.90;;;;;;4980466;28;20050;-91
2023/11/15 12:39:16;;;;;;;2.80;1.47;;;12.00;99.90;;;;;;4961317;28;20053;-90
2023/11/15 12:41:49;;;;;;;3.67;1.55;;;11.90;99.90;;;;;;4961322;28;20027;-90
2023/11/15 12:44:16;;;;;;;6.65;1.80;;;11.90;99.90;;;;;;4978900;28;20034;-89
2023/11/15 12:46:42;;;;;;;6.00;2.28;;;11.90;99.90;;;;;;4967487;28;20026;-90
2023/11/15 12:49:14;;;;;;;4.90;1.70;;;11.90;99.90;;;;;;4961940;28;20022;-91
2023/11/15 12:51:51;;;;;;;7.53;1.92;;;11.90;99.90;;;;;;4971890;28;20034;-90
2023/11/15 12:54:22;;;;;;;2.90;1.60;;;11.90;99.90;;;;;;4964816;28;20125;-91